Time;durP1;ratioP1;P1;durP2;ratioP2;P2;SDS_P1;SDS_P2;PMS_P1;PMS_P2;Temp;Humidity;BMP_temperature;BMP_pressure;BME280_temperature;BME280_humidity;BME280_pressure;Samples;Min_cycle;Max_cycle;Signal;HPM_P1;HPM_P2
2021/04/17 00:02:25;;;;;;;13.10;8.37;;;4.10;99.90;;;;;;5054703;28;20459;-51
2021/04/17 00:04:52;;;;;;;15.77;9.50;;;4.20;99.90;;;;;;5053497;28;20447;-51
2021/04/17 00:07:19;;;;;;;15.60;9.60;;;4.10;99.90;;;;;;5034085;28;20463;-50
2021/04/17 00:09:46;;;;;;;16.70;9.40;;;4.10;99.90;;;;;;5034770;28;20480;-51
2021/04/17 00:12:15;;;;;;;12.50;8.20;;;4.10;99.90;;;;;;5052491;28;20465;-51
2021/04/17 00:14:43;;;;;;;14.40;8.97;;;4.10;99.90;;;;;;5054463;28;20458;-50
2021/04/17 00:17:10;;;;;;;15.10;8.90;;;4.30;99.90;;;;;;5054195;28;20459;-51
2021/04/17 00:19:37;;;;;;;12.53;8.40;;;4.20;99.90;;;;;;5054077;28;20467;-50
2021/04/17 00:22:04;;;;;;;13.50;8.60;;;4.20;99.90;;;;;;5038420;28;20455;-51
2021/04/17 00:24:31;;;;;;;13.80;9.07;;;4.20;99.90;;;;;;5034714;28;20507;-51
2021/04/17 00:26:58;;;;;;;12.63;8.10;;;4.20;99.90;;;;;;5048475;28;20459;-51
2021/04/17 00:29:25;;;;;;;13.17;8.47;;;4.10;99.90;;;;;;5054110;28;20964;-51
2021/04/17 00:31:51;;;;;;;15.07;9.00;;;4.20;99.90;;;;;;5054259;28;20454;-50
2021/04/17 00:34:18;;;;;;;13.87;9.10;;;4.20;99.90;;;;;;5054703;28;20455;-51
2021/04/17 00:36:44;;;;;;;14.50;8.80;;;4.10;99.90;;;;;;5054589;28;20987;-51
2021/04/17 00:39:11;;;;;;;14.17;9.23;;;4.10;99.90;;;;;;5053847;28;20959;-52
2021/04/17 00:41:38;;;;;;;12.40;8.33;;;4.20;99.90;;;;;;5054555;28;20444;-51
2021/04/17 00:44:05;;;;;;;13.50;8.67;;;4.00;99.90;;;;;;5054168;28;20446;-50
2021/04/17 00:46:33;;;;;;;13.63;9.00;;;4.00;99.90;;;;;;5053839;28;20487;-50
2021/04/17 00:49:02;;;;;;;13.67;8.83;;;4.00;99.90;;;;;;5054257;28;20443;-51
2021/04/17 00:51:28;;;;;;;12.77;8.20;;;4.00;99.90;;;;;;5054325;28;20472;-51
2021/04/17 00:53:55;;;;;;;12.73;8.50;;;4.00;99.90;;;;;;5053821;28;20448;-51
2021/04/17 00:56:22;;;;;;;14.40;7.83;;;4.10;99.90;;;;;;5045521;28;20444;-51
2021/04/17 00:58:49;;;;;;;16.10;9.47;;;4.10;99.90;;;;;;5033929;28;20452;-49
2021/04/17 01:01:17;;;;;;;16.57;9.57;;;4.00;99.90;;;;;;5036833;28;20476;-51
2021/04/17 01:03:52;;;;;;;14.57;9.47;;;3.70;99.90;;;;;;5054189;28;20477;-51
2021/04/17 01:06:22;;;;;;;15.83;9.53;;;3.40;99.90;;;;;;5054079;28;20497;-51
2021/04/17 01:08:54;;;;;;;14.90;9.27;;;3.30;99.90;;;;;;5053698;28;20462;-50
2021/04/17 01:11:27;;;;;;;18.10;9.83;;;3.30;99.90;;;;;;5053882;28;20568;-50
2021/04/17 01:13:56;;;;;;;13.70;8.90;;;3.20;99.90;;;;;;5054050;28;20446;-51
2021/04/17 01:16:24;;;;;;;14.00;9.20;;;3.40;99.90;;;;;;5053754;28;20446;-51
2021/04/17 01:18:53;;;;;;;12.70;8.33;;;3.50;99.90;;;;;;5053148;28;20525;-50
2021/04/17 01:21:20;;;;;;;16.03;9.83;;;3.60;99.90;;;;;;5053223;28;20486;-51
2021/04/17 01:23:51;;;;;;;16.63;9.60;;;3.20;99.90;;;;;;5053801;28;20459;-51
2021/04/17 01:26:21;;;;;;;14.60;8.50;;;3.00;99.90;;;;;;5053772;28;20571;-51
2021/04/17 01:28:51;;;;;;;15.33;9.47;;;3.10;99.90;;;;;;5053527;28;20447;-51
2021/04/17 01:31:20;;;;;;;12.67;8.20;;;3.20;99.90;;;;;;5053828;28;20475;-51
2021/04/17 01:33:50;;;;;;;15.20;8.63;;;3.30;99.90;;;;;;5053162;28;20455;-50
2021/04/17 01:36:17;;;;;;;13.00;8.97;;;3.40;99.90;;;;;;5052895;28;20457;-51
2021/04/17 01:38:49;;;;;;;15.50;9.27;;;3.40;99.90;;;;;;5053170;28;20944;-50
2021/04/17 01:41:21;;;;;;;18.30;8.73;;;3.30;99.90;;;;;;5053433;28;20466;-51
2021/04/17 01:43:52;;;;;;;17.50;9.27;;;3.30;99.90;;;;;;5053406;28;20450;-51
2021/04/17 01:46:23;;;;;;;16.13;8.97;;;3.10;99.90;;;;;;5052873;28;20483;-50
2021/04/17 01:48:52;;;;;;;16.07;8.87;;;3.00;99.90;;;;;;5052778;28;20455;-50
2021/04/17 01:51:19;;;;;;;14.40;9.73;;;2.90;99.90;;;;;;5039290;28;20489;-51
2021/04/17 01:53:48;;;;;;;17.60;9.87;;;3.00;99.90;;;;;;5053028;28;20465;-50
2021/04/17 01:56:18;;;;;;;16.63;9.43;;;3.10;99.90;;;;;;5052418;28;20440;-50
2021/04/17 01:58:46;;;;;;;15.77;9.80;;;3.20;99.90;;;;;;5053100;28;20524;-50
2021/04/17 02:01:14;;;;;;;15.77;9.23;;;3.20;99.90;;;;;;5052788;28;20475;-50
2021/04/17 02:03:41;;;;;;;17.50;10.20;;;3.20;99.90;;;;;;5052625;28;20553;-50
2021/04/17 02:06:08;;;;;;;16.37;9.23;;;3.10;99.90;;;;;;5052379;28;20486;-51
2021/04/17 02:08:35;;;;;;;16.57;9.90;;;3.20;99.90;;;;;;5052661;28;20457;-50
2021/04/17 02:11:03;;;;;;;17.00;9.53;;;3.20;99.90;;;;;;5093101;22;20916;-51
2021/04/17 02:13:29;;;;;;;18.63;10.37;;;3.00;99.90;;;;;;5092190;28;20453;-51
2021/04/17 02:16:02;;;;;;;14.53;9.13;;;2.80;99.90;;;;;;5091996;28;20453;-52
2021/04/17 02:18:34;;;;;;;16.60;9.50;;;2.70;99.90;;;;;;5072313;28;20450;-52
2021/04/17 02:21:04;;;;;;;15.17;9.67;;;2.80;99.90;;;;;;5077166;28;20811;-51
2021/04/17 02:23:31;;;;;;;16.63;10.30;;;2.70;99.90;;;;;;5073852;28;20488;-51
2021/04/17 02:25:58;;;;;;;17.00;9.17;;;2.70;99.90;;;;;;5090219;28;20548;-51
2021/04/17 02:28:26;;;;;;;17.87;10.50;;;2.60;99.90;;;;;;5092573;28;20452;-52
2021/04/17 02:30:53;;;;;;;16.50;9.90;;;2.50;99.90;;;;;;5084140;28;20473;-51
2021/04/17 02:33:21;;;;;;;16.67;10.37;;;2.60;99.90;;;;;;5072411;28;20454;-51
2021/04/17 02:35:48;;;;;;;20.50;11.50;;;2.60;99.90;;;;;;5072704;28;20950;-52
2021/04/17 02:38:14;;;;;;;16.80;10.63;;;2.70;99.90;;;;;;5091313;28;20964;-52
2021/04/17 02:40:41;;;;;;;19.20;10.97;;;2.60;99.90;;;;;;5092428;28;20996;-52
2021/04/17 02:43:08;;;;;;;20.10;9.97;;;2.70;99.90;;;;;;5092420;28;20457;-52
2021/04/17 02:45:35;;;;;;;18.57;11.00;;;2.70;99.90;;;;;;5086691;28;20477;-51
2021/04/17 02:48:01;;;;;;;16.00;9.73;;;2.70;99.90;;;;;;5078244;28;20945;-52
2021/04/17 02:50:29;;;;;;;15.90;10.00;;;2.70;99.90;;;;;;5072304;28;20482;-52
2021/04/17 02:52:56;;;;;;;21.27;11.80;;;2.60;99.90;;;;;;5092418;28;20972;-52
2021/04/17 02:55:23;;;;;;;19.93;11.50;;;2.40;99.90;;;;;;5091733;28;20471;-51
2021/04/17 02:57:50;;;;;;;18.83;11.20;;;2.50;99.90;;;;;;5091571;28;20985;-52
2021/04/17 03:00:22;;;;;;;18.77;11.07;;;2.50;99.90;;;;;;5091141;28;20496;-52
2021/04/17 03:02:49;;;;;;;18.70;10.63;;;2.30;99.90;;;;;;5090566;28;20464;-52
2021/04/17 03:05:16;;;;;;;17.60;11.00;;;2.40;99.90;;;;;;5071689;28;20484;-52
2021/04/17 03:07:47;;;;;;;16.37;9.97;;;2.40;99.90;;;;;;5080639;28;20456;-51
2021/04/17 03:10:15;;;;;;;15.57;9.97;;;2.40;99.90;;;;;;5077276;28;20440;-51
2021/04/17 03:12:41;;;;;;;19.87;10.27;;;2.50;99.90;;;;;;5071764;28;20527;-51
2021/04/17 03:15:10;;;;;;;17.37;9.70;;;2.50;99.90;;;;;;5073391;28;20461;-51
2021/04/17 03:17:37;;;;;;;18.93;9.97;;;2.40;99.90;;;;;;5091547;28;20821;-51
2021/04/17 03:20:06;;;;;;;16.30;9.80;;;2.50;99.90;;;;;;5090601;28;20500;-52
2021/04/17 03:22:33;;;;;;;19.47;11.70;;;2.40;99.90;;;;;;5091815;28;20448;-51
2021/04/17 03:25:01;;;;;;;17.60;10.20;;;2.40;99.90;;;;;;5091717;28;20967;-52
2021/04/17 03:27:28;;;;;;;18.63;10.67;;;2.40;99.90;;;;;;5091826;28;20485;-52
2021/04/17 03:29:54;;;;;;;16.73;9.70;;;2.40;99.90;;;;;;5091570;28;20447;-52
2021/04/17 03:32:21;;;;;;;21.00;10.80;;;2.40;99.90;;;;;;5077695;28;20452;-52
2021/04/17 03:34:48;;;;;;;15.50;9.23;;;2.40;99.90;;;;;;5071592;28;20452;-52
2021/04/17 03:37:14;;;;;;;17.43;10.30;;;2.40;99.90;;;;;;5071647;28;20440;-52
2021/04/17 03:39:41;;;;;;;15.40;9.67;;;2.30;99.90;;;;;;5075989;28;20440;-51
2021/04/17 03:42:08;;;;;;;17.43;10.20;;;2.30;99.90;;;;;;5091671;28;20472;-52
2021/04/17 03:44:35;;;;;;;18.23;10.10;;;2.30;99.90;;;;;;5090730;28;20464;-52
2021/04/17 03:47:01;;;;;;;17.30;10.50;;;2.30;99.90;;;;;;5092012;28;20484;-51
2021/04/17 03:49:28;;;;;;;18.90;10.90;;;2.20;99.90;;;;;;5091427;28;20455;-51
2021/04/17 03:51:55;;;;;;;15.97;10.20;;;2.10;99.90;;;;;;5091504;28;20473;-52
2021/04/17 03:54:21;;;;;;;16.50;10.37;;;2.10;99.90;;;;;;5091804;28;20454;-51
2021/04/17 03:56:48;;;;;;;18.97;10.47;;;2.10;99.90;;;;;;5091322;28;20501;-51
2021/04/17 03:59:15;;;;;;;20.00;10.03;;;2.10;99.90;;;;;;5091568;28;20503;-51
2021/04/17 04:01:42;;;;;;;18.60;11.10;;;2.10;99.90;;;;;;5090843;28;20468;-51
2021/04/17 04:04:09;;;;;;;19.07;10.60;;;2.10;99.90;;;;;;5091437;28;20448;-52
2021/04/17 04:06:35;;;;;;;20.00;11.40;;;2.10;99.90;;;;;;5081750;28;20479;-51
2021/04/17 04:09:02;;;;;;;18.60;10.50;;;2.00;99.90;;;;;;5084842;28;20447;-52
2021/04/17 04:11:28;;;;;;;21.33;11.03;;;2.00;99.90;;;;;;5081582;28;20849;-51
2021/04/17 04:13:55;;;;;;;20.10;11.37;;;1.50;99.90;;;;;;5071172;28;20448;-52
2021/04/17 04:16:23;;;;;;;23.20;12.20;;;1.50;99.90;;;;;;5082804;28;20447;-51
2021/04/17 04:18:49;;;;;;;20.03;11.13;;;1.60;99.90;;;;;;5072396;28;20469;-51
2021/04/17 04:21:16;;;;;;;17.77;9.90;;;1.70;99.90;;;;;;5076258;28;20463;-51
2021/04/17 04:23:42;;;;;;;20.20;10.77;;;1.70;99.90;;;;;;5095206;28;20441;-52
2021/04/17 04:26:09;;;;;;;20.20;10.33;;;1.70;99.90;;;;;;5095077;28;21009;-51
2021/04/17 04:28:35;;;;;;;20.63;11.27;;;1.60;99.90;;;;;;5095036;28;20447;-52
2021/04/17 04:31:02;;;;;;;20.30;11.10;;;1.70;99.90;;;;;;5095045;28;20469;-51
2021/04/17 04:33:29;;;;;;;17.97;10.40;;;1.60;99.90;;;;;;5080573;28;20456;-51
2021/04/17 04:35:56;;;;;;;20.63;11.10;;;1.50;99.90;;;;;;5074682;28;20449;-52
2021/04/17 04:38:23;;;;;;;19.60;11.13;;;1.50;99.90;;;;;;5075390;28;20450;-51
2021/04/17 04:40:49;;;;;;;19.73;11.10;;;1.70;99.90;;;;;;5088501;28;20473;-51
2021/04/17 04:43:16;;;;;;;19.13;10.97;;;1.80;99.90;;;;;;5094715;28;20453;-52
2021/04/17 04:45:42;;;;;;;19.87;11.40;;;1.50;99.90;;;;;;5089269;28;20537;-51
2021/04/17 04:48:09;;;;;;;18.73;10.63;;;1.40;99.90;;;;;;5074547;28;20450;-51
2021/04/17 04:50:37;;;;;;;19.00;10.67;;;1.60;99.90;;;;;;5074882;28;20475;-51
2021/04/17 04:53:04;;;;;;;18.70;11.40;;;1.80;99.90;;;;;;5074352;28;20940;-52
2021/04/17 04:55:30;;;;;;;19.87;10.37;;;1.80;99.90;;;;;;5074349;28;20934;-52
2021/04/17 04:57:57;;;;;;;20.43;10.73;;;1.90;99.90;;;;;;5091596;28;20527;-51
2021/04/17 05:00:24;;;;;;;20.50;11.00;;;2.00;99.90;;;;;;5088505;28;20478;-52
2021/04/17 05:02:50;;;;;;;23.57;12.00;;;2.00;99.90;;;;;;5074335;28;20810;-51
2021/04/17 05:05:17;;;;;;;22.27;12.03;;;2.10;99.90;;;;;;5074111;28;20463;-52
2021/04/17 05:07:45;;;;;;;25.93;12.37;;;2.10;99.90;;;;;;5073793;28;20945;-51
2021/04/17 05:10:12;;;;;;;25.17;12.87;;;2.00;99.90;;;;;;5082417;28;20446;-51
2021/04/17 05:12:39;;;;;;;23.33;12.47;;;2.20;99.90;;;;;;5089792;28;20454;-52
2021/04/17 05:15:06;;;;;;;18.57;11.23;;;1.90;99.90;;;;;;5089111;28;20496;-51
2021/04/17 05:17:36;;;;;;;20.30;11.37;;;1.70;99.90;;;;;;5094031;28;20499;-51
2021/04/17 05:20:04;;;;;;;23.90;11.20;;;1.80;99.90;;;;;;5093892;28;20445;-51
2021/04/17 05:22:30;;;;;;;19.13;11.27;;;2.10;99.90;;;;;;5094022;28;20445;-51
2021/04/17 05:24:58;;;;;;;20.93;11.23;;;2.40;99.90;;;;;;5088427;28;20449;-52
2021/04/17 05:27:24;;;;;;;23.10;12.50;;;2.60;99.90;;;;;;5088547;28;20485;-52
2021/04/17 05:29:51;;;;;;;21.87;12.20;;;2.80;99.90;;;;;;5073621;28;20470;-52
2021/04/17 05:32:17;;;;;;;21.77;12.20;;;3.50;99.90;;;;;;5084285;28;20540;-51
2021/04/17 05:34:44;;;;;;;20.57;11.17;;;4.00;99.90;;;;;;5093622;28;20449;-51
2021/04/17 05:37:11;;;;;;;19.70;11.43;;;4.80;99.90;;;;;;5093626;28;20452;-51
2021/04/17 05:39:37;;;;;;;19.40;11.90;;;5.80;99.90;;;;;;5076329;28;20453;-51
2021/04/17 05:42:06;;;;;;;17.97;10.87;;;6.40;99.90;;;;;;5073377;28;20479;-51
2021/04/17 05:44:32;;;;;;;17.83;11.33;;;7.00;99.90;;;;;;5084461;28;20452;-52
2021/04/17 05:46:59;;;;;;;22.70;11.10;;;7.50;99.90;;;;;;5092488;28;20477;-52
2021/04/17 05:49:25;;;;;;;18.50;10.67;;;7.90;99.90;;;;;;5093388;28;20446;-52
2021/04/17 05:51:52;;;;;;;16.10;10.90;;;8.50;99.90;;;;;;5093448;28;20473;-52
2021/04/17 05:54:20;;;;;;;18.20;12.00;;;8.70;99.90;;;;;;5084178;28;20447;-52
2021/04/17 05:56:46;;;;;;;20.20;12.00;;;8.60;99.90;;;;;;5089790;28;20438;-52
2021/04/17 05:59:14;;;;;;;20.20;12.27;;;8.60;99.90;;;;;;5090128;28;20438;-52
2021/04/17 06:01:41;;;;;;;20.20;12.37;;;8.60;99.90;;;;;;5085282;28;20469;-52
2021/04/17 06:04:07;;;;;;;18.97;12.57;;;8.60;99.90;;;;;;5072914;28;20500;-52
2021/04/17 06:06:34;;;;;;;17.80;11.60;;;8.50;99.90;;;;;;5090708;28;20473;-52
2021/04/17 06:09:00;;;;;;;17.03;11.63;;;8.90;99.90;;;;;;5093060;28;20469;-52
2021/04/17 06:11:27;;;;;;;15.30;10.93;;;9.40;99.90;;;;;;5084730;28;20474;-52
2021/04/17 06:13:53;;;;;;;20.67;13.00;;;10.00;98.60;;;;;;5085414;28;20454;-52
2021/04/17 06:16:21;;;;;;;15.60;11.50;;;9.70;99.50;;;;;;5093165;28;20466;-52
2021/04/17 06:18:47;;;;;;;16.87;11.43;;;10.00;97.90;;;;;;5081647;28;20454;-52
2021/04/17 06:21:14;;;;;;;27.43;13.90;;;10.40;97.70;;;;;;5091605;28;20476;-53
2021/04/17 06:23:40;;;;;;;18.57;12.50;;;10.40;97.40;;;;;;5092243;28;20467;-52
2021/04/17 06:26:07;;;;;;;17.20;11.90;;;10.90;96.30;;;;;;5076817;28;20484;-52
2021/04/17 06:28:35;;;;;;;18.23;12.17;;;11.10;95.70;;;;;;5089845;28;20449;-52
2021/04/17 06:31:02;;;;;;;17.63;12.03;;;10.90;95.70;;;;;;5073600;28;20477;-52
2021/04/17 06:33:29;;;;;;;15.83;11.97;;;10.40;96.40;;;;;;5092420;28;20514;-52
2021/04/17 06:35:56;;;;;;;16.43;12.13;;;10.00;97.10;;;;;;5080341;28;20457;-52
2021/04/17 06:38:22;;;;;;;19.10;11.70;;;10.10;97.00;;;;;;5085231;28;20845;-52
2021/04/17 06:40:51;;;;;;;20.97;12.60;;;10.10;97.90;;;;;;5085038;28;20468;-52
2021/04/17 06:43:21;;;;;;;21.40;12.97;;;10.80;97.00;;;;;;5087858;28;20465;-53
2021/04/17 06:45:48;;;;;;;19.73;12.40;;;11.50;96.20;;;;;;5080655;28;20509;-52
2021/04/17 06:48:16;;;;;;;19.40;12.60;;;11.90;96.60;;;;;;5076382;28;20831;-53
2021/04/17 06:50:45;;;;;;;19.40;12.60;;;12.60;95.50;;;;;;5080381;28;20508;-53
2021/04/17 06:53:15;;;;;;;19.60;12.70;;;13.20;94.50;;;;;;5081251;28;20813;-53
2021/04/17 06:55:43;;;;;;;19.40;12.93;;;12.80;94.70;;;;;;5082094;28;20461;-53
2021/04/17 06:58:09;;;;;;;20.53;13.70;;;12.40;95.90;;;;;;5087758;28;20446;-52
2021/04/17 07:00:36;;;;;;;19.73;12.73;;;12.20;96.50;;;;;;5082954;28;20966;-52
2021/04/17 07:03:02;;;;;;;21.07;13.87;;;12.60;96.00;;;;;;5092226;28;20865;-52
2021/04/17 07:05:29;;;;;;;21.90;13.73;;;12.10;96.00;;;;;;5079831;28;20803;-52
2021/04/17 07:08:01;;;;;;;22.63;14.20;;;9.90;98.60;;;;;;5072448;28;20449;-52
2021/04/17 07:10:28;;;;;;;24.47;14.30;;;8.70;99.90;;;;;;5071641;28;20482;-51
2021/04/17 07:13:07;;;;;;;24.57;14.10;;;8.70;99.90;;;;;;5084636;28;20457;-51
2021/04/17 07:15:35;;;;;;;20.30;13.47;;;8.80;99.90;;;;;;5075438;28;20522;-52
2021/04/17 07:18:29;;;;;;;23.93;14.47;;;8.60;99.90;;;;;;5083082;28;20439;-51
2021/04/17 07:20:57;;;;;;;21.97;13.80;;;7.80;99.90;;;;;;5075193;28;20515;-51
2021/04/17 07:23:42;;;;;;;23.80;13.97;;;7.60;99.90;;;;;;5079190;28;20457;-52
2021/04/17 07:26:11;;;;;;;23.60;14.27;;;8.30;99.90;;;;;;5081079;28;20478;-52
2021/04/17 07:28:38;;;;;;;21.63;13.27;;;9.30;99.90;;;;;;5091170;28;20445;-52
2021/04/17 07:31:06;;;;;;;22.87;13.53;;;10.00;99.90;;;;;;5071621;28;20473;-51
2021/04/17 07:33:33;;;;;;;27.73;14.87;;;10.80;99.90;;;;;;5071647;28;20450;-52
2021/04/17 07:36:00;;;;;;;21.03;12.90;;;9.80;99.90;;;;;;5077847;28;20452;-53
2021/04/17 07:38:32;;;;;;;22.57;12.60;;;10.50;99.90;;;;;;5080789;28;20471;-52
2021/04/17 07:41:06;;;;;;;23.00;14.17;;;10.70;99.90;;;;;;5083301;28;20477;-52
2021/04/17 07:43:49;;;;;;;21.30;13.63;;;11.40;99.90;;;;;;5083401;28;20946;-52
2021/04/17 07:46:17;;;;;;;19.57;12.47;;;12.50;97.90;;;;;;5071423;28;20475;-53
2021/04/17 07:48:44;;;;;;;21.70;14.50;;;13.10;96.40;;;;;;5080783;28;20455;-52
2021/04/17 07:51:10;;;;;;;20.60;13.80;;;11.80;99.00;;;;;;5083263;28;20519;-52
2021/04/17 07:53:39;;;;;;;25.03;14.50;;;12.40;97.90;;;;;;5077893;28;20906;-53
2021/04/17 07:56:28;;;;;;;23.33;15.17;;;11.60;98.40;;;;;;5077308;28;20450;-51
2021/04/17 07:58:56;;;;;;;24.55;14.75;;;11.10;99.00;;;;;;5085104;28;20492;-52
2021/04/17 08:01:24;;;;;;;22.20;14.70;;;11.60;98.50;;;;;;5082737;28;20223;-52
2021/04/17 08:03:55;;;;;;;25.50;15.07;;;11.20;98.90;;;;;;5095571;28;20480;-52
2021/04/17 08:06:22;;;;;;;21.80;14.13;;;11.10;99.90;;;;;;5078600;28;20486;-52
2021/04/17 08:08:51;;;;;;;22.60;14.70;;;11.50;98.40;;;;;;5075522;28;20454;-52
2021/04/17 08:11:20;;;;;;;22.57;13.73;;;11.70;98.50;;;;;;5074777;28;20481;-53
2021/04/17 08:13:49;;;;;;;23.40;15.07;;;11.50;98.80;;;;;;5074634;28;20454;-52
2021/04/17 08:16:18;;;;;;;21.00;13.80;;;11.80;99.10;;;;;;5076163;28;20472;-52
2021/04/17 08:18:45;;;;;;;22.47;14.33;;;12.20;98.80;;;;;;5110044;22;20522;-52
2021/04/17 08:21:13;;;;;;;21.90;14.33;;;10.90;99.50;;;;;;5073803;28;20522;-49
2021/04/17 08:23:44;;;;;;;24.97;14.33;;;9.50;99.90;;;;;;5066035;28;20458;-49
2021/04/17 08:26:11;;;;;;;22.93;14.43;;;9.50;99.90;;;;;;5074335;28;20492;-50
2021/04/17 08:28:42;;;;;;;24.53;15.53;;;9.80;99.90;;;;;;5064376;28;20465;-51
2021/04/17 08:31:23;;;;;;;25.50;14.70;;;8.70;99.90;;;;;;5066475;28;20507;-51
2021/04/17 08:34:13;;;;;;;23.33;14.03;;;9.10;99.90;;;;;;5073961;28;20452;-51
2021/04/17 08:36:42;;;;;;;23.87;14.43;;;9.30;99.90;;;;;;5054743;28;20493;-51
2021/04/17 08:39:42;;;;;;;24.17;14.37;;;8.80;99.90;;;;;;5057456;28;21004;-51
2021/04/17 08:42:12;;;;;;;23.23;14.00;;;9.40;99.90;;;;;;5063649;28;20456;-50
2021/04/17 08:44:40;;;;;;;23.47;14.53;;;9.30;99.90;;;;;;5055604;28;20458;-51
2021/04/17 08:47:10;;;;;;;22.43;13.57;;;9.90;99.90;;;;;;5064635;28;20525;-51
2021/04/17 08:49:38;;;;;;;20.93;12.63;;;10.60;99.90;;;;;;5061563;28;20875;-51
2021/04/17 08:52:20;;;;;;;20.67;14.10;;;11.00;97.10;;;;;;5073635;28;20454;-52
2021/04/17 08:55:08;;;;;;;20.40;13.57;;;10.70;96.80;;;;;;5054287;28;20482;-52
2021/04/17 08:57:36;;;;;;;20.80;13.30;;;10.40;97.00;;;;;;5071054;28;20529;-52
2021/04/17 09:00:05;;;;;;;20.77;14.40;;;10.10;98.70;;;;;;5073449;28;20526;-52
2021/04/17 09:02:44;;;;;;;22.13;13.60;;;10.50;99.00;;;;;;5068329;28;20460;-52
2021/04/17 09:05:13;;;;;;;21.97;14.03;;;10.30;99.70;;;;;;5073317;28;20458;-53
2021/04/17 09:07:43;;;;;;;21.50;13.63;;;10.00;98.90;;;;;;5064198;28;20480;-53
2021/04/17 09:10:32;;;;;;;22.23;14.43;;;10.80;97.70;;;;;;5064738;28;20550;-51
2021/04/17 09:13:33;;;;;;;23.13;15.03;;;10.50;98.70;;;;;;5053677;28;20548;-51
2021/04/17 09:16:02;;;;;;;21.87;13.80;;;10.90;99.30;;;;;;5067646;28;20941;-52
2021/04/17 09:18:48;;;;;;;21.90;13.50;;;11.70;96.40;;;;;;5070709;28;20474;-53
2021/04/17 09:21:34;;;;;;;20.63;13.90;;;11.50;99.30;;;;;;5062371;28;20869;-52
2021/04/17 09:24:02;;;;;;;21.10;13.90;;;11.90;98.10;;;;;;5053481;28;20505;-52
2021/04/17 09:26:40;;;;;;;24.93;14.60;;;12.60;96.70;;;;;;5071881;28;20521;-53
2021/04/17 09:29:21;;;;;;;19.63;13.23;;;11.70;95.90;;;;;;5072907;28;20963;-52
2021/04/17 09:31:47;;;;;;;20.83;13.63;;;12.00;96.40;;;;;;5053501;28;20447;-52
2021/04/17 09:34:16;;;;;;;20.87;13.80;;;12.00;95.60;;;;;;5053505;28;20452;-52
2021/04/17 09:36:43;;;;;;;19.30;13.13;;;12.10;96.10;;;;;;5072888;28;21050;-52
2021/04/17 09:39:30;;;;;;;21.13;14.67;;;12.30;96.60;;;;;;5073037;28;20466;-52
2021/04/17 09:41:58;;;;;;;18.23;12.73;;;12.60;96.70;;;;;;5070975;28;20463;-51
2021/04/17 09:44:24;;;;;;;19.90;13.83;;;12.70;94.90;;;;;;5073231;28;20463;-52
2021/04/17 09:47:08;;;;;;;19.20;13.83;;;12.70;94.70;;;;;;5072995;28;20999;-51
2021/04/17 09:49:41;;;;;;;18.00;12.70;;;11.90;96.90;;;;;;5072821;28;20470;-51
2021/04/17 09:52:09;;;;;;;24.40;13.80;;;12.10;96.00;;;;;;5072479;28;20828;-52
2021/04/17 09:54:35;;;;;;;19.17;13.83;;;13.30;94.70;;;;;;5065444;28;20459;-51
2021/04/17 09:57:07;;;;;;;21.27;13.80;;;13.80;93.20;;;;;;5058462;28;20439;-51
2021/04/17 09:59:34;;;;;;;20.60;14.03;;;14.50;94.00;;;;;;5072654;28;20462;-53
2021/04/17 10:02:01;;;;;;;19.47;13.70;;;14.50;93.30;;;;;;5072797;28;20451;-52
2021/04/17 10:04:54;;;;;;;20.17;13.37;;;14.40;92.20;;;;;;5070612;28;20451;-52
2021/04/17 10:07:21;;;;;;;20.67;14.17;;;13.60;93.50;;;;;;5072768;28;20489;-53
2021/04/17 10:10:01;;;;;;;21.03;14.03;;;14.10;93.00;;;;;;5072487;28;20526;-52
2021/04/17 10:12:28;;;;;;;21.60;14.27;;;14.10;94.00;;;;;;5072528;28;20500;-53
2021/04/17 10:15:14;;;;;;;21.30;13.87;;;13.60;95.40;;;;;;5064111;28;20460;-51
2021/04/17 10:17:41;;;;;;;22.10;13.80;;;12.30;96.40;;;;;;5051899;28;20826;-52
2021/04/17 10:20:10;;;;;;;21.47;14.30;;;12.30;95.10;;;;;;5070543;28;20466;-52
2021/04/17 10:22:37;;;;;;;22.60;13.80;;;13.00;95.10;;;;;;5072072;28;20451;-51
2021/04/17 10:25:07;;;;;;;21.23;14.70;;;11.80;96.30;;;;;;5063070;28;20452;-52
2021/04/17 10:27:36;;;;;;;21.60;14.40;;;12.10;97.50;;;;;;5051887;28;20574;-51
2021/04/17 10:30:15;;;;;;;22.60;14.73;;;11.70;96.30;;;;;;5052291;28;20525;-52
2021/04/17 10:32:41;;;;;;;21.33;13.53;;;12.50;95.90;;;;;;5052335;28;20447;-52
2021/04/17 10:35:11;;;;;;;22.57;15.10;;;13.20;96.70;;;;;;5057882;28;20451;-52
2021/04/17 10:37:44;;;;;;;20.03;13.33;;;13.60;95.10;;;;;;5071758;28;20865;-52
2021/04/17 10:40:12;;;;;;;20.63;13.70;;;13.80;96.70;;;;;;5070741;28;20510;-52
2021/04/17 10:42:50;;;;;;;19.60;13.40;;;14.00;95.30;;;;;;5072089;28;20529;-52
2021/04/17 10:45:19;;;;;;;25.53;14.53;;;12.90;96.70;;;;;;5071534;28;20442;-52
2021/04/17 10:48:00;;;;;;;20.20;13.67;;;12.30;97.10;;;;;;5058441;28;20549;-52
2021/04/17 10:50:29;;;;;;;21.10;13.50;;;12.10;96.20;;;;;;5072358;28;20478;-52
2021/04/17 10:52:58;;;;;;;21.00;13.30;;;12.20;98.40;;;;;;5062175;28;20451;-53
2021/04/17 10:55:37;;;;;;;19.30;13.33;;;12.30;99.00;;;;;;5060760;28;20455;-52
2021/04/17 10:58:04;;;;;;;21.73;14.10;;;12.80;96.80;;;;;;5063671;28;20462;-52
2021/04/17 11:00:33;;;;;;;21.60;14.10;;;11.80;96.30;;;;;;5051677;28;20472;-50
2021/04/17 11:03:00;;;;;;;24.07;13.17;;;11.00;98.10;;;;;;5061446;28;20526;-51
2021/04/17 11:05:31;;;;;;;22.23;13.93;;;11.40;98.60;;;;;;5071284;28;20520;-52
2021/04/17 11:07:59;;;;;;;21.60;13.17;;;11.40;99.80;;;;;;5070795;28;20474;-50
2021/04/17 11:10:34;;;;;;;22.80;13.97;;;11.30;98.60;;;;;;5067255;28;20981;-51
2021/04/17 11:13:04;;;;;;;20.57;14.23;;;12.00;99.50;;;;;;5058780;28;20473;-51
2021/04/17 11:15:31;;;;;;;19.83;12.63;;;12.50;98.70;;;;;;5053369;28;20453;-51
2021/04/17 11:18:15;;;;;;;21.03;14.03;;;12.20;98.10;;;;;;5055386;28;20443;-51
2021/04/17 11:21:05;;;;;;;24.20;14.30;;;12.50;99.90;;;;;;5057413;28;20444;-52
2021/04/17 11:23:43;;;;;;;21.60;13.33;;;11.90;98.20;;;;;;5066721;28;20458;-52
2021/04/17 11:26:13;;;;;;;22.30;13.90;;;11.70;98.80;;;;;;5059315;28;20486;-51
2021/04/17 11:28:42;;;;;;;24.97;14.47;;;11.10;99.40;;;;;;5058836;28;20485;-51
2021/04/17 11:31:10;;;;;;;22.40;13.80;;;11.10;98.70;;;;;;5057193;28;20455;-51
2021/04/17 11:33:37;;;;;;;26.00;15.13;;;11.30;99.90;;;;;;5070618;28;20451;-51
2021/04/17 11:36:06;;;;;;;24.10;14.00;;;11.20;99.30;;;;;;5070521;28;20453;-52
2021/04/17 11:38:32;;;;;;;21.87;13.80;;;11.00;99.20;;;;;;5070847;28;20476;-51
2021/04/17 11:40:59;;;;;;;19.83;11.90;;;11.60;99.90;;;;;;5066871;28;20470;-52
2021/04/17 11:43:25;;;;;;;20.23;13.67;;;11.80;99.40;;;;;;5070857;28;20882;-52
2021/04/17 11:45:52;;;;;;;18.90;12.20;;;11.30;99.20;;;;;;5070717;28;20462;-52
2021/04/17 11:48:19;;;;;;;19.43;12.50;;;11.00;99.00;;;;;;5070786;28;20454;-52
2021/04/17 11:50:46;;;;;;;22.47;12.90;;;11.20;99.80;;;;;;5067900;28;20468;-51
2021/04/17 11:53:15;;;;;;;25.27;14.20;;;11.10;99.90;;;;;;5064182;28;20826;-52
2021/04/17 11:55:42;;;;;;;22.43;13.70;;;11.20;99.90;;;;;;5059291;28;20473;-51
2021/04/17 11:58:08;;;;;;;19.10;12.93;;;11.60;99.70;;;;;;5071096;28;20463;-52
2021/04/17 12:00:35;;;;;;;20.30;13.07;;;11.90;99.50;;;;;;5068649;28;21019;-51
2021/04/17 12:03:02;;;;;;;24.03;13.77;;;11.70;99.40;;;;;;5070805;28;20453;-52
2021/04/17 12:05:28;;;;;;;21.00;13.93;;;11.70;99.20;;;;;;5070569;28;20500;-52
2021/04/17 12:07:56;;;;;;;19.60;12.60;;;11.50;97.90;;;;;;5068821;28;20499;-51
2021/04/17 12:10:23;;;;;;;20.77;13.10;;;11.30;99.00;;;;;;5067554;28;20512;-51
2021/04/17 12:12:50;;;;;;;21.17;13.00;;;11.60;98.30;;;;;;5071128;28;20454;-51
2021/04/17 12:15:17;;;;;;;20.30;12.07;;;11.30;98.60;;;;;;5062062;28;20455;-52
2021/04/17 12:17:47;;;;;;;18.23;12.17;;;11.70;99.00;;;;;;5052740;28;20450;-52
2021/04/17 12:20:14;;;;;;;20.23;12.70;;;11.70;99.20;;;;;;5059096;28;20487;-51
2021/04/17 12:22:42;;;;;;;18.83;11.97;;;11.80;99.50;;;;;;5067874;28;20475;-51
2021/04/17 12:25:09;;;;;;;19.53;12.90;;;11.30;98.70;;;;;;5054219;28;20503;-52
2021/04/17 12:27:40;;;;;;;17.13;11.47;;;11.40;98.10;;;;;;5066925;28;20486;-51
2021/04/17 12:30:09;;;;;;;19.70;12.30;;;11.30;98.40;;;;;;5068569;28;20524;-51
2021/04/17 12:32:42;;;;;;;19.10;11.90;;;11.10;98.50;;;;;;5067187;28;20450;-51
2021/04/17 12:35:11;;;;;;;17.20;11.77;;;11.50;98.80;;;;;;5061476;28;20542;-51
2021/04/17 12:37:38;;;;;;;17.13;11.20;;;11.30;98.10;;;;;;5054437;28;20450;-52
2021/04/17 12:40:06;;;;;;;17.40;11.63;;;11.30;97.80;;;;;;5057220;28;20978;-51
2021/04/17 12:42:33;;;;;;;17.10;11.67;;;10.50;97.80;;;;;;5059087;28;20471;-51
2021/04/17 12:45:00;;;;;;;18.57;11.47;;;10.50;99.20;;;;;;5071925;28;20465;-51
2021/04/17 12:47:27;;;;;;;16.87;10.97;;;10.30;99.00;;;;;;5069954;28;20928;-51